Terminal Aerodrome Forecast
Issued by NWS Sioux Falls, SD

Home | Current Version | Previous Version | Text Only | Print | Product List | Glossary Off
Versions: 1 2 3 4 5 6 7 8 9 10 11 12 13 14 15 16 17 18 19 20 21 22 23 24 25

000
FTUS43 KFSD 280529
TAFHON
TAF
KHON 280529Z 2806/2906 12006KT P6SM BKN120
     FM281000 11006KT 5SM -SHRA SCT005 BKN010
     FM282100 06005KT P6SM SCT025 BKN200=

USA.gov is the U.S. government's official web portal to all federal, state and local government web resources and services.